Terminal Aerodrome Forecast
Issued by NWS North Platte, NE

Home | Current Version | Previous Version | Text Only | Print | Product List | Glossary On
Versions: 1 2 3 4 5 6 7 8 9 10 11 12 13 14 15
000
FTUS43 KLBF 202000 AAA
TAFLBF
TAF AMD
KLBF 202020Z 2020/2118 13007KT P6SM SCT100
     FM210000 14005KT P6SM BKN100
     FM210700 35013G21KT P6SM BKN100=

USA.gov is the U.S. government's official web portal to all federal, state and local government web resources and services.